Time;durP1;ratioP1;P1;durP2;ratioP2;P2;SDS_P1;SDS_P2;PMS_P1;PMS_P2;Temp;Humidity;BMP_temperature;BMP_pressure;BME280_temperature;BME280_humidity;BME280_pressure;Samples;Min_cycle;Max_cycle;Signal;HPM_P1;HPM_P2
2022/05/23 00:00:35;;;;;;;2.67;2.20;;;;;;;15.60;65.76;98578.34;5109268;28;20634;-85
2022/05/23 00:03:02;;;;;;;4.83;2.40;;;;;;;15.47;66.49;98593.41;5110070;28;20217;-85
2022/05/23 00:05:29;;;;;;;4.20;2.23;;;;;;;15.46;67.02;98591.81;5109379;28;20200;-85
2022/05/23 00:07:59;;;;;;;3.70;2.20;;;;;;;15.43;66.79;98581.81;5109469;28;20224;-84
2022/05/23 00:10:26;;;;;;;3.67;2.30;;;;;;;15.42;65.98;98584.53;5109725;28;20233;-85
2022/05/23 00:12:52;;;;;;;3.77;2.37;;;;;;;15.36;65.78;98580.81;5109588;28;20224;-85
2022/05/23 00:15:21;;;;;;;4.90;2.50;;;;;;;15.34;65.46;98582.72;5109276;28;20204;-83
2022/05/23 00:17:48;;;;;;;2.73;2.10;;;;;;;15.30;65.74;98582.25;5109266;28;20225;-83
2022/05/23 00:20:19;;;;;;;3.50;2.07;;;;;;;15.33;65.23;98575.94;5109652;28;20205;-83
2022/05/23 00:22:46;;;;;;;4.40;2.10;;;;;;;15.36;65.48;98573.09;5109305;28;20258;-83
2022/05/23 00:25:13;;;;;;;3.50;2.30;;;;;;;15.32;65.19;98570.00;5109361;28;20209;-85
2022/05/23 00:27:42;;;;;;;6.93;2.20;;;;;;;15.30;65.83;98571.09;5109334;28;20295;-83
2022/05/23 00:30:13;;;;;;;4.33;2.30;;;;;;;15.21;66.47;98559.16;5109474;28;20228;-85
2022/05/23 00:35:26;;;;;;;3.57;2.30;;;;;;;15.20;66.47;98565.28;5113148;28;20226;-83
2022/05/23 00:37:56;;;;;;;4.37;2.20;;;;;;;15.14;66.66;98567.50;5112797;28;20228;-85
2022/05/23 00:40:36;;;;;;;4.70;2.37;;;;;;;15.11;67.23;98565.22;5113317;28;20292;-85
2022/05/23 00:43:16;;;;;;;3.87;2.20;;;;;;;15.16;66.64;98559.63;5113024;28;20252;-83
2022/05/23 00:45:46;;;;;;;3.27;2.23;;;;;;;15.11;67.47;98567.78;5113161;28;20225;-85
2022/05/23 00:48:16;;;;;;;5.00;2.60;;;;;;;15.09;67.31;98566.34;5112745;28;20216;-85
2022/05/23 00:50:46;;;;;;;3.50;2.30;;;;;;;15.06;67.53;98572.59;5112860;28;20232;-83
2022/05/23 00:53:14;;;;;;;3.50;2.20;;;;;;;15.00;67.28;98580.91;5112730;28;20748;-85
2022/05/23 00:55:44;;;;;;;3.40;2.40;;;;;;;14.81;68.33;98578.56;5112657;28;20204;-84
2022/05/23 00:58:16;;;;;;;6.03;2.63;;;;;;;14.80;68.19;98589.78;5112749;28;20300;-83
2022/05/23 01:00:43;;;;;;;3.27;2.20;;;;;;;14.81;67.97;98587.09;5112726;28;20199;-85
2022/05/23 01:03:16;;;;;;;5.47;2.37;;;;;;;14.77;67.38;98579.81;5112426;28;20213;-83
2022/05/23 01:05:44;;;;;;;6.53;2.37;;;;;;;14.77;67.86;98569.50;5112742;28;20218;-83
2022/05/23 01:08:10;;;;;;;5.27;2.33;;;;;;;14.79;67.93;98570.97;5111793;28;20230;-85
2022/05/23 01:10:40;;;;;;;6.93;2.40;;;;;;;14.81;68.37;98576.00;5112031;28;20244;-85
2022/05/23 01:13:07;;;;;;;3.33;2.40;;;;;;;14.79;68.50;98577.91;5112305;28;20259;-85
2022/05/23 01:15:35;;;;;;;4.27;2.37;;;;;;;14.79;67.83;98567.59;5112053;27;20593;-85
2022/05/23 01:18:02;;;;;;;4.50;2.40;;;;;;;14.81;67.42;98570.84;5112240;28;20223;-83
2022/05/23 01:20:31;;;;;;;4.33;2.43;;;;;;;14.78;67.77;98571.16;5112226;28;20198;-84
2022/05/23 01:23:12;;;;;;;2.73;2.10;;;;;;;14.73;68.10;98575.94;5111992;28;20749;-85
2022/05/23 01:25:43;;;;;;;4.40;2.40;;;;;;;14.73;67.74;98563.06;5111523;28;20682;-83
2022/05/23 01:28:11;;;;;;;3.33;2.40;;;;;;;14.68;67.48;98576.38;5111965;28;20222;-85
2022/05/23 01:30:40;;;;;;;2.97;2.40;;;;;;;14.62;68.00;98577.75;5111543;28;20237;-83
2022/05/23 01:33:11;;;;;;;3.80;2.60;;;;;;;14.62;67.65;98582.91;5111765;28;20217;-84
2022/05/23 01:35:38;;;;;;;3.00;2.50;;;;;;;14.62;67.85;98572.63;5111704;28;20201;-85
2022/05/23 01:38:06;;;;;;;2.87;2.43;;;;;;;14.62;67.73;98584.69;5111435;28;20217;-83
2022/05/23 01:40:33;;;;;;;4.70;2.70;;;;;;;14.59;67.57;98583.22;5111464;28;20250;-85
2022/05/23 01:43:01;;;;;;;5.30;2.70;;;;;;;14.57;67.53;98587.69;5111500;28;20267;-85
2022/05/23 01:45:31;;;;;;;3.43;2.63;;;;;;;14.53;68.48;98591.53;5111292;28;20201;-83
2022/05/23 01:47:58;;;;;;;4.90;2.80;;;;;;;14.54;68.75;98593.13;5111622;28;20564;-85
2022/05/23 01:50:25;;;;;;;4.70;2.60;;;;;;;14.55;68.31;98586.25;5111235;28;20237;-83
2022/05/23 01:52:53;;;;;;;4.23;2.63;;;;;;;14.57;67.21;98590.25;5111278;28;20225;-83
2022/05/23 01:55:21;;;;;;;3.37;2.80;;;;;;;14.47;67.56;98594.66;5111582;28;20207;-83
2022/05/23 01:57:48;;;;;;;9.53;2.80;;;;;;;14.43;67.78;98595.91;5111344;27;20214;-83
2022/05/23 02:03:03;;;;;;;3.47;2.80;;;;;;;14.38;67.46;98595.53;5111170;28;20611;-83
2022/05/23 02:05:30;;;;;;;5.13;2.67;;;;;;;14.35;68.00;98590.69;5111115;28;20682;-83
2022/05/23 02:07:57;;;;;;;3.90;2.97;;;;;;;14.38;68.31;98591.22;5110859;28;20216;-83
2022/05/23 02:10:25;;;;;;;3.90;3.00;;;;;;;14.40;68.25;98589.31;5110902;28;20724;-86
2022/05/23 02:12:52;;;;;;;4.63;2.80;;;;;;;14.41;68.80;98579.81;5110768;28;20219;-85
2022/05/23 02:15:21;;;;;;;4.97;3.30;;;;;;;14.42;68.75;98591.72;5110992;28;20211;-83
2022/05/23 02:17:48;;;;;;;8.60;2.90;;;;;;;14.39;69.09;98579.16;5110618;28;20233;-85
2022/05/23 02:20:15;;;;;;;4.03;3.20;;;;;;;14.36;68.60;98584.59;5110701;28;20703;-83
2022/05/23 02:22:42;;;;;;;6.13;3.30;;;;;;;14.33;68.95;98588.25;5110747;28;20222;-85
2022/05/23 02:25:10;;;;;;;5.83;3.30;;;;;;;14.35;68.96;98585.56;5110579;28;20217;-83
2022/05/23 02:27:37;;;;;;;5.10;3.00;;;;;;;14.36;68.79;98582.00;5110477;28;20225;-83
2022/05/23 02:30:05;;;;;;;4.17;3.40;;;;;;;14.38;69.11;98574.97;5110484;28;20332;-83
2022/05/23 02:32:33;;;;;;;4.17;3.30;;;;;;;14.34;69.34;98573.63;5110315;28;20218;-86
2022/05/23 02:35:00;;;;;;;5.67;3.57;;;;;;;14.30;69.62;98572.31;5110749;28;20198;-83
2022/05/23 02:37:27;;;;;;;6.20;3.40;;;;;;;14.27;69.92;98571.66;5110508;28;20241;-85
2022/05/23 02:39:54;;;;;;;4.03;3.33;;;;;;;14.20;70.39;98582.69;5110482;28;20206;-85
2022/05/23 02:42:20;;;;;;;4.33;3.40;;;;;;;14.22;70.35;98576.44;5110267;28;20224;-82
2022/05/23 02:44:47;;;;;;;5.93;2.97;;;;;;;14.24;70.56;98574.53;5110353;28;20209;-86
2022/05/23 02:47:14;;;;;;;5.13;3.00;;;;;;;14.17;70.40;98578.66;5110067;28;20716;-85
2022/05/23 02:49:43;;;;;;;4.53;3.00;;;;;;;14.19;70.81;98574.13;5110068;28;20229;-82
2022/05/23 02:52:10;;;;;;;4.57;2.90;;;;;;;14.13;70.92;98576.50;5110188;28;20224;-85
2022/05/23 02:54:36;;;;;;;3.87;2.90;;;;;;;14.07;71.05;98567.59;5110205;27;20225;-85
2022/05/23 02:57:04;;;;;;;5.13;2.87;;;;;;;14.10;71.35;98566.50;5109859;28;20589;-84
2022/05/23 02:59:30;;;;;;;3.50;2.93;;;;;;;14.09;71.24;98570.03;5109977;28;20201;-83
2022/05/23 03:04:43;;;;;;;4.07;2.90;;;;;;;14.06;71.44;98568.56;5109842;28;20275;-86
2022/05/23 03:07:10;;;;;;;4.40;2.93;;;;;;;14.03;71.31;98571.44;5109871;28;20232;-83
2022/05/23 03:09:37;;;;;;;4.40;3.07;;;;;;;14.13;71.24;98577.31;5108646;28;20711;-83
2022/05/23 03:12:04;;;;;;;4.30;2.80;;;;;;;14.14;71.08;98568.66;5109805;28;20593;-84
2022/05/23 03:14:31;;;;;;;5.00;3.07;;;;;;;14.17;71.05;98572.69;5110217;28;20201;-83
2022/05/23 03:17:01;;;;;;;5.80;2.87;;;;;;;14.25;72.06;98576.16;5109606;28;20221;-83
2022/05/23 03:19:28;;;;;;;5.00;2.90;;;;;;;14.25;72.66;98580.47;5109738;28;20222;-83
2022/05/23 03:27:26;;;;;;;5.17;3.20;;;;;;;14.21;73.28;98584.28;5109747;28;20685;-84
2022/05/23 03:29:53;;;;;;;4.07;3.33;;;;;;;14.20;73.24;98588.63;5109708;28;20230;-83
2022/05/23 03:32:20;;;;;;;5.43;3.30;;;;;;;14.21;73.37;98590.25;5109599;28;20582;-84
2022/05/23 03:34:47;;;;;;;4.07;3.00;;;;;;;14.20;73.25;98588.63;5109684;28;20238;-86
2022/05/23 03:37:16;;;;;;;3.37;3.00;;;;;;;14.18;74.09;98587.97;5109444;28;20221;-87
2022/05/23 03:39:43;;;;;;;3.70;3.30;;;;;;;14.11;74.36;98584.38;5109711;28;20200;-86
2022/05/23 03:42:10;;;;;;;5.33;3.20;;;;;;;14.12;74.91;98580.03;5109360;28;20275;-83
2022/05/23 03:44:37;;;;;;;3.90;3.20;;;;;;;14.17;74.98;98578.66;5109678;28;20195;-86
2022/05/23 03:47:04;;;;;;;5.60;3.43;;;;;;;14.18;75.27;98582.81;5109358;28;20215;-87
2022/05/23 03:49:32;;;;;;;4.40;3.43;;;;;;;14.21;75.57;98579.94;5109267;28;20287;-86
2022/05/23 03:51:59;;;;;;;4.57;3.60;;;;;;;14.25;76.15;98586.44;5109703;28;20630;-83
2022/05/23 03:54:27;;;;;;;6.13;3.40;;;;;;;14.29;76.21;98581.81;5109752;28;20208;-86
2022/05/23 03:56:59;;;;;;;5.93;3.60;;;;;;;14.31;76.16;98581.66;5109476;28;20213;-84
2022/05/23 03:59:26;;;;;;;6.83;3.60;;;;;;;14.34;76.37;98587.31;5109611;28;20202;-84
2022/05/23 04:01:55;;;;;;;5.50;3.43;;;;;;;14.43;75.88;98590.78;5109478;28;20235;-83
2022/05/23 04:04:22;;;;;;;9.07;4.17;;;;;;;14.49;75.32;98587.59;5109414;28;20193;-83
2022/05/23 04:06:49;;;;;;;11.30;3.93;;;;;;;14.53;73.90;98586.38;5109208;28;20938;-86
2022/05/23 04:09:16;;;;;;;6.73;3.60;;;;;;;14.62;73.64;98584.69;5112725;28;20224;-86
2022/05/23 04:11:44;;;;;;;9.50;3.40;;;;;;;14.71;73.23;98582.00;5113055;28;20237;-83
2022/05/23 04:14:11;;;;;;;4.63;3.17;;;;;;;14.81;73.40;98573.41;5113414;28;20207;-86
2022/05/23 04:16:38;;;;;;;6.70;3.10;;;;;;;14.90;73.07;98575.09;5112969;28;20641;-80
2022/05/23 04:19:08;;;;;;;3.97;3.30;;;;;;;14.94;72.52;98581.53;5113264;28;20209;-80
2022/05/23 04:21:34;;;;;;;5.37;3.20;;;;;;;15.10;72.13;98571.34;5113090;28;20587;-80
2022/05/23 04:24:01;;;;;;;3.83;3.00;;;;;;;15.26;71.16;98577.53;5113473;28;20219;-83
2022/05/23 04:26:28;;;;;;;4.40;2.80;;;;;;;15.40;70.33;98584.69;5112624;28;20722;-83
2022/05/23 04:28:56;;;;;;;5.07;2.73;;;;;;;15.50;70.69;98582.00;5112917;28;20625;-80
2022/05/23 04:31:23;;;;;;;6.03;2.40;;;;;;;15.60;67.48;98588.66;5112875;28;20228;-83
2022/05/23 04:36:35;;;;;;;2.60;2.30;;;;;;;15.97;68.70;98600.41;5112852;28;20220;-80
2022/05/23 04:39:02;;;;;;;4.23;2.63;;;;;;;16.25;65.99;98595.78;5112924;28;20261;-81
2022/05/23 04:41:29;;;;;;;5.17;2.60;;;;;;;16.39;66.70;98589.19;5113153;28;20237;-79
2022/05/23 04:43:57;;;;;;;4.87;3.00;;;;;;;16.67;66.61;98591.47;5113026;28;20224;-82
2022/05/23 04:46:24;;;;;;;6.13;2.70;;;;;;;16.93;65.38;98583.56;5112800;27;20228;-81
2022/05/23 04:51:35;;;;;;;3.23;2.27;;;;;;;17.34;65.18;98579.09;5112629;28;20240;-80
2022/05/23 04:54:02;;;;;;;5.93;2.60;;;;;;;17.58;62.72;98575.63;5112567;28;20197;-82
2022/05/23 04:56:30;;;;;;;4.47;2.70;;;;;;;17.96;65.59;98575.00;5112626;28;20615;-82
2022/05/23 04:58:59;;;;;;;4.50;2.63;;;;;;;18.14;60.46;98578.09;5112508;27;20208;-81
2022/05/23 05:01:26;;;;;;;5.70;2.37;;;;;;;18.42;58.79;98578.41;5112613;28;20218;-82
2022/05/23 05:03:55;;;;;;;4.03;2.13;;;;;;;18.54;59.76;98586.56;5112368;28;20201;-82
2022/05/23 05:06:22;;;;;;;6.17;2.33;;;;;;;18.82;57.48;98578.25;5112823;28;20281;-81
2022/05/23 05:08:50;;;;;;;3.30;2.10;;;;;;;18.88;54.80;98585.31;5112358;28;20291;-81
2022/05/23 05:11:17;;;;;;;2.20;1.90;;;;;;;18.97;56.00;98587.66;5111973;28;20239;-81
2022/05/23 05:13:45;;;;;;;3.17;2.20;;;;;;;19.10;56.57;98584.44;5111851;28;20215;-82
2022/05/23 05:16:13;;;;;;;2.53;2.10;;;;;;;19.35;56.58;98586.81;5112007;28;20239;-81
2022/05/23 05:18:40;;;;;;;3.13;2.33;;;;;;;19.60;58.01;98582.91;5111661;28;20731;-82
2022/05/23 05:21:09;;;;;;;4.50;2.23;;;;;;;19.68;58.10;98580.25;5112009;27;20205;-82
2022/05/23 05:23:38;;;;;;;5.20;2.40;;;;;;;19.95;57.58;98585.72;5112167;28;20230;-81
2022/05/23 05:26:05;;;;;;;3.37;2.20;;;;;;;20.13;57.25;98588.75;5111552;28;20265;-81
2022/05/23 05:28:32;;;;;;;3.23;2.20;;;;;;;20.34;56.26;98579.34;5112141;28;20203;-81
2022/05/23 05:31:04;;;;;;;4.37;2.20;;;;;;;20.40;54.50;98583.00;5111599;28;20236;-81
2022/05/23 05:33:36;;;;;;;3.07;2.20;;;;;;;20.63;54.73;98588.03;5111704;28;20210;-82
2022/05/23 05:36:06;;;;;;;4.40;2.57;;;;;;;20.85;54.03;98589.56;5111895;28;20288;-81
2022/05/23 05:38:38;;;;;;;3.63;2.40;;;;;;;20.97;53.74;98575.09;5111594;28;20208;-82
2022/05/23 05:41:11;;;;;;;4.50;2.50;;;;;;;21.12;53.65;98574.16;5112042;28;20335;-81
2022/05/23 05:43:41;;;;;;;9.00;2.80;;;;;;;20.90;52.95;98584.63;5111688;28;20202;-80
2022/05/23 05:46:15;;;;;;;5.63;2.80;;;;;;;21.05;52.77;98573.31;5111977;28;20198;-81
2022/05/23 05:48:47;;;;;;;6.17;3.07;;;;;;;20.96;55.38;98576.06;5111433;28;20381;-81
2022/05/23 05:51:17;;;;;;;5.33;3.07;;;;;;;21.11;54.86;98575.94;5111671;28;20511;-80
2022/05/23 05:53:45;;;;;;;4.33;2.87;;;;;;;21.40;56.18;98569.72;5111354;28;20213;-81
2022/05/23 05:56:12;;;;;;;4.63;2.87;;;;;;;21.61;52.65;98566.25;5111296;28;20255;-81
2022/05/23 05:58:39;;;;;;;6.53;3.20;;;;;;;21.46;56.03;98574.16;5111489;28;20724;-81
2022/05/23 06:01:06;;;;;;;5.33;2.63;;;;;;;21.33;50.26;98578.47;5111261;28;20230;-81
2022/05/23 06:03:34;;;;;;;5.67;3.00;;;;;;;21.42;51.95;98572.94;5111456;28;20211;-81
2022/05/23 06:11:39;;;;;;;4.60;2.20;;;;;;;21.99;49.47;98562.31;5111486;28;20285;-82
2022/05/23 06:14:06;;;;;;;3.03;2.20;;;;;;;22.18;47.55;98572.00;5111641;28;20205;-81
2022/05/23 06:16:34;;;;;;;2.60;2.07;;;;;;;22.19;45.45;98568.41;5111314;28;20260;-83
2022/05/23 06:19:01;;;;;;;4.17;2.20;;;;;;;22.38;47.29;98559.81;5111238;28;20738;-82
2022/05/23 06:21:30;;;;;;;3.37;2.03;;;;;;;22.87;46.02;98572.63;5111178;28;20224;-83
2022/05/23 06:23:57;;;;;;;3.13;2.27;;;;;;;23.26;42.86;98564.72;5110927;28;20696;-82
2022/05/23 06:26:27;;;;;;;3.80;2.40;;;;;;;23.33;42.91;98563.91;5110665;28;20231;-83
2022/05/23 06:28:54;;;;;;;4.43;2.30;;;;;;;22.78;44.15;98567.63;5110897;28;20742;-82
2022/05/23 06:31:22;;;;;;;4.83;2.23;;;;;;;22.86;45.43;98560.59;5110063;28;20814;-82
2022/05/23 06:33:49;;;;;;;2.30;2.10;;;;;;;23.16;42.65;98559.16;5110654;28;20205;-83
2022/05/23 06:36:18;;;;;;;3.03;2.03;;;;;;;23.44;43.12;98560.66;5110860;28;20591;-83
2022/05/23 06:38:47;;;;;;;4.10;2.00;;;;;;;23.53;45.75;98563.84;5110547;27;20698;-82
2022/05/23 06:41:14;;;;;;;4.32;2.03;;;;;;;23.70;43.47;98571.00;5110521;28;20197;-82
2022/05/23 06:43:42;;;;;;;2.88;1.90;;;;;;;23.83;43.30;98571.97;5111123;28;20201;-83
2022/05/23 06:46:10;;;;;;;4.22;1.90;;;;;;;24.12;44.34;98568.00;5110418;28;20205;-80
2022/05/23 06:48:38;;;;;;;4.75;2.10;;;;;;;24.36;42.95;98574.25;5110513;28;20388;-83
2022/05/23 06:51:05;;;;;;;4.90;1.92;;;;;;;24.32;45.15;98567.88;5110069;28;20229;-85
2022/05/23 06:53:32;;;;;;;3.40;1.92;;;;;;;24.45;42.56;98567.78;5110783;28;20205;-86
2022/05/23 06:56:00;;;;;;;4.93;1.83;;;;;;;24.58;41.03;98565.06;5110426;28;20205;-86
2022/05/23 06:58:27;;;;;;;4.07;2.20;;;;;;;24.52;42.82;98568.53;5110338;28;20646;-84
2022/05/23 07:00:54;;;;;;;6.85;2.00;;;;;;;24.18;44.16;98573.16;5110229;28;20198;-80
2022/05/23 07:03:22;;;;;;;5.35;1.90;;;;;;;24.28;41.30;98564.84;5110381;28;20596;-80
2022/05/23 07:14:04;;;;;;;5.93;2.42;;;;;;;24.83;40.94;98564.22;5110097;28;20188;-83
2022/05/23 07:16:32;;;;;;;7.18;3.13;;;;;;;25.08;43.90;98570.22;5110204;28;20228;-79
2022/05/23 07:18:59;;;;;;;2.63;2.22;;;;;;;25.41;39.19;98566.47;5110135;28;20201;-86
2022/05/23 07:21:26;;;;;;;3.75;2.28;;;;;;;25.89;42.51;98572.72;5110212;28;20730;-84
2022/05/23 07:23:54;;;;;;;3.97;2.10;;;;;;;26.21;38.74;98570.69;5110331;28;20201;-81
2022/05/23 07:26:23;;;;;;;5.40;2.13;;;;;;;26.12;39.53;98562.34;5110098;28;20591;-82
2022/05/23 07:28:50;;;;;;;4.38;2.17;;;;;;;26.41;44.26;98565.91;5109832;28;20212;-85
2022/05/23 07:31:18;;;;;;;3.55;2.08;;;;;;;26.60;37.80;98563.22;5109562;28;20233;-85
2022/05/23 07:33:45;;;;;;;4.82;2.10;;;;;;;26.53;36.64;98568.59;5110025;28;20525;-86
2022/05/23 07:36:13;;;;;;;3.50;2.40;;;;;;;26.56;38.69;98572.59;5109848;28;20576;-80
2022/05/23 07:38:41;;;;;;;4.22;2.10;;;;;;;26.68;38.89;98565.50;5109933;28;20216;-81
2022/05/23 07:41:09;;;;;;;5.85;2.10;;;;;;;27.14;38.80;98569.13;5109803;28;20628;-86
2022/05/23 07:43:41;;;;;;;3.55;1.90;;;;;;;27.30;37.01;98572.88;5114087;28;20205;-86
2022/05/23 07:46:12;;;;;;;4.88;2.13;;;;;;;27.54;37.42;98563.09;5114412;28;20197;-86
2022/05/23 07:48:40;;;;;;;3.50;2.08;;;;;;;27.59;37.30;98571.09;5114148;28;20189;-81
2022/05/23 07:51:08;;;;;;;2.38;1.92;;;;;;;27.83;37.37;98565.75;5114132;28;20702;-81
2022/05/23 08:01:59;;;;;;;3.17;2.10;;;;;;;28.54;37.28;98561.72;5113658;28;20286;-82
2022/05/23 08:04:27;;;;;;;3.30;1.90;;;;;;;28.92;36.61;98562.78;5113787;28;20201;-85
2022/05/23 08:06:53;;;;;;;3.75;2.05;;;;;;;28.97;33.87;98549.66;5113609;28;20213;-81
2022/05/23 08:09:21;;;;;;;5.25;2.10;;;;;;;29.18;35.58;98563.94;5113819;28;20228;-86
2022/05/23 08:11:52;;;;;;;3.67;2.05;;;;;;;28.91;33.46;98561.16;5113650;28;20652;-86
2022/05/23 08:14:20;;;;;;;2.30;2.03;;;;;;;28.21;32.74;98562.47;5113395;28;20663;-85
2022/05/23 08:16:47;;;;;;;2.75;2.10;;;;;;;27.92;36.90;98565.13;5113275;28;20217;-86
2022/05/23 08:19:14;;;;;;;2.72;1.95;;;;;;;28.17;36.55;98556.09;5113539;28;20209;-82
2022/05/23 08:21:47;;;;;;;4.18;2.13;;;;;;;28.13;34.33;98555.78;5113281;28;20217;-81
2022/05/23 08:24:14;;;;;;;2.97;2.00;;;;;;;28.44;35.60;98558.91;5113373;28;20208;-86
2022/05/23 08:26:42;;;;;;;5.35;2.17;;;;;;;28.75;34.48;98562.00;5113362;28;20244;-86
2022/05/23 08:29:09;;;;;;;6.10;2.15;;;;;;;29.16;35.63;98558.09;5112968;27;20266;-80
2022/05/23 08:31:38;;;;;;;3.10;2.00;;;;;;;29.16;33.42;98559.94;5112833;28;20247;-86
2022/05/23 08:34:06;;;;;;;3.88;2.30;;;;;;;29.29;33.43;98556.94;5113109;28;20206;-86
2022/05/23 08:36:34;;;;;;;3.38;2.03;;;;;;;29.46;34.02;98557.66;5113237;28;20222;-81
2022/05/23 08:39:02;;;;;;;5.15;2.10;;;;;;;29.54;33.35;98557.22;5113149;28;20201;-86
2022/05/23 08:41:32;;;;;;;6.13;2.53;;;;;;;29.45;33.87;98556.06;5112589;28;20224;-87
2022/05/23 08:44:05;;;;;;;5.53;2.17;;;;;;;29.32;34.37;98556.44;5113131;28;20220;-81
2022/05/23 08:46:46;;;;;;;2.50;2.08;;;;;;;29.37;34.67;98553.88;5113084;28;20217;-81
2022/05/23 08:49:27;;;;;;;5.38;2.20;;;;;;;29.54;36.02;98554.59;5112694;28;20197;-83
2022/05/23 08:52:06;;;;;;;7.15;2.15;;;;;;;30.06;35.55;98557.75;5112968;28;20614;-90
2022/05/23 08:54:45;;;;;;;5.22;2.25;;;;;;;30.45;32.41;98553.84;5111715;28;20258;-81
2022/05/23 08:57:22;;;;;;;4.00;2.10;;;;;;;30.30;32.71;98551.13;5112513;28;20221;-82
2022/05/23 08:59:53;;;;;;;2.42;2.05;;;;;;;30.05;33.84;98548.22;5112592;28;20588;-83
2022/05/23 09:02:31;;;;;;;4.65;2.15;;;;;;;30.49;36.81;98558.66;5112658;28;20703;-84
2022/05/23 09:05:05;;;;;;;4.43;2.40;;;;;;;30.33;31.70;98555.88;5112503;28;20193;-79
2022/05/23 09:07:35;;;;;;;2.63;2.10;;;;;;;30.29;35.16;98549.53;5112338;28;20227;-81
2022/05/23 09:10:06;;;;;;;5.10;2.10;;;;;;;30.30;32.80;98550.31;5112027;28;20393;-77
2022/05/23 09:12:33;;;;;;;5.78;2.05;;;;;;;30.50;33.50;98552.31;5112190;28;20233;-80
2022/05/23 09:15:00;;;;;;;4.15;2.22;;;;;;;30.21;32.31;98547.34;5112064;28;20202;-78
2022/05/23 09:17:32;;;;;;;3.38;2.10;;;;;;;30.32;33.96;98554.31;5111923;28;20707;-83
2022/05/23 09:20:05;;;;;;;3.38;2.15;;;;;;;30.41;30.54;98558.06;5112100;28;20197;-83
2022/05/23 09:22:43;;;;;;;6.07;2.00;;;;;;;30.18;31.89;98561.00;5112333;28;20261;-76
2022/05/23 09:25:11;;;;;;;3.72;2.03;;;;;;;29.95;31.91;98555.00;5111720;28;20205;-82
2022/05/23 09:27:41;;;;;;;4.00;2.25;;;;;;;30.11;36.01;98547.25;5111972;28;20229;-81
2022/05/23 09:30:11;;;;;;;2.85;1.90;;;;;;;30.21;33.08;98548.16;5111781;28;20204;-82
2022/05/23 09:32:47;;;;;;;4.18;2.05;;;;;;;30.14;33.41;98558.09;5111817;28;20233;-78
2022/05/23 09:35:17;;;;;;;3.85;1.85;;;;;;;30.08;32.64;98550.38;5112022;28;20204;-78
2022/05/23 09:37:46;;;;;;;3.10;2.15;;;;;;;30.12;29.96;98541.72;5111857;28;20228;-79
2022/05/23 09:40:24;;;;;;;3.13;1.75;;;;;;;29.90;30.46;98541.78;5111804;28;20198;-85
2022/05/23 09:48:34;;;;;;;2.85;1.80;;;;;;;30.48;30.65;98549.13;5104246;28;20285;-84
2022/05/23 09:51:05;;;;;;;4.70;1.98;;;;;;;30.52;27.08;98547.59;5111496;28;20243;-77
2022/05/23 09:53:34;;;;;;;4.93;1.75;;;;;;;30.64;27.21;98550.81;5111563;28;20203;-78
2022/05/23 09:56:23;;;;;;;2.75;1.70;;;;;;;30.74;27.34;98540.31;5111604;28;20202;-78
2022/05/23 09:58:51;;;;;;;2.08;1.60;;;;;;;30.61;30.65;98538.94;5111455;28;20205;-80
2022/05/23 10:01:26;;;;;;;2.10;1.90;;;;;;;30.58;30.21;98541.28;5111074;28;20215;-85
2022/05/23 10:03:54;;;;;;;3.92;1.85;;;;;;;30.31;29.71;98536.91;5111334;28;20205;-84
2022/05/23 10:06:34;;;;;;;4.20;1.83;;;;;;;30.05;32.38;98540.31;5110046;28;20887;-88
2022/05/23 10:09:01;;;;;;;3.55;1.90;;;;;;;29.96;32.62;98535.53;5111143;28;20371;-85
2022/05/23 10:11:30;;;;;;;3.17;1.70;;;;;;;30.07;30.98;98540.88;5111313;28;20228;-85
2022/05/23 10:13:59;;;;;;;2.65;1.75;;;;;;;30.18;28.42;98532.00;5111263;28;20197;-85
2022/05/23 10:16:28;;;;;;;3.85;1.80;;;;;;;30.31;31.02;98528.97;5111417;28;20214;-87
2022/05/23 10:19:01;;;;;;;3.35;1.70;;;;;;;29.87;29.92;98539.66;5111199;28;20290;-85
2022/05/23 10:21:32;;;;;;;2.67;1.70;;;;;;;29.95;31.04;98527.88;5111677;28;20221;-88
2022/05/23 10:24:04;;;;;;;3.10;1.77;;;;;;;29.96;31.54;98524.16;5110980;28;20201;-87
2022/05/23 10:26:33;;;;;;;4.28;2.70;;;;;;;29.91;30.19;98522.31;5110569;28;20225;-85
2022/05/23 10:29:09;;;;;;;3.50;2.00;;;;;;;29.65;30.07;98523.13;5110938;28;20301;-85
2022/05/23 10:31:39;;;;;;;2.60;1.75;;;;;;;29.85;32.12;98514.63;5110939;28;20306;-86
2022/05/23 10:34:15;;;;;;;4.45;2.00;;;;;;;30.29;30.85;98517.88;5110546;28;20719;-88
2022/05/23 10:36:45;;;;;;;6.65;2.08;;;;;;;29.82;31.45;98508.00;5110639;28;20221;-84
2022/05/23 10:42:11;;;;;;;3.13;2.10;;;;;;;29.31;31.22;98513.50;5110277;28;20275;-86
2022/05/23 10:44:59;;;;;;;4.40;2.00;;;;;;;29.17;30.80;98511.50;5110485;28;20193;-84
2022/05/23 10:47:38;;;;;;;2.92;1.67;;;;;;;29.10;29.34;98509.84;5110348;28;20221;-84
2022/05/23 10:50:14;;;;;;;2.53;1.77;;;;;;;29.19;30.85;98494.44;5110341;28;20258;-88
2022/05/23 10:52:50;;;;;;;3.53;1.90;;;;;;;28.81;29.64;98513.69;5110381;28;20395;-85
2022/05/23 10:55:23;;;;;;;4.57;2.05;;;;;;;28.39;30.64;98511.47;5110276;28;20201;-86
2022/05/23 10:58:03;;;;;;;6.13;1.90;;;;;;;28.16;30.11;98497.50;5110333;28;20243;-83
2022/05/23 11:00:36;;;;;;;3.50;2.08;;;;;;;28.62;30.00;98498.19;5110632;28;20215;-86
2022/05/23 11:03:11;;;;;;;4.88;1.88;;;;;;;28.87;32.83;98502.19;5110101;28;20213;-84
2022/05/23 11:05:45;;;;;;;5.03;2.05;;;;;;;29.01;32.40;98492.09;5110688;28;20531;-87
2022/05/23 11:08:35;;;;;;;4.72;2.00;;;;;;;29.23;30.89;98489.47;5109829;28;20217;-87
2022/05/23 11:11:08;;;;;;;2.38;1.80;;;;;;;29.38;30.12;98497.53;5109720;28;20210;-84
2022/05/23 11:13:49;;;;;;;4.15;2.00;;;;;;;29.39;31.78;98496.50;5109955;28;20236;-84
2022/05/23 11:16:20;;;;;;;2.63;1.85;;;;;;;29.41;31.15;98491.78;5109838;28;20520;-84
2022/05/23 11:19:02;;;;;;;2.40;1.90;;;;;;;29.15;31.17;98487.25;5110039;28;20201;-87
2022/05/23 11:21:37;;;;;;;2.67;1.85;;;;;;;28.36;32.35;98483.84;5109697;28;20220;-83
2022/05/23 11:24:09;;;;;;;3.30;2.00;;;;;;;28.66;31.42;98486.13;5109944;28;20201;-84
2022/05/23 11:26:40;;;;;;;5.40;1.83;;;;;;;28.83;29.61;98480.03;5109528;28;20290;-84
2022/05/23 11:34:51;;;;;;;3.50;2.03;;;;;;;28.28;33.04;98472.94;5110141;28;20200;-86
2022/05/23 11:40:08;;;;;;;3.83;1.80;;;;;;;28.34;35.06;98478.03;5109802;28;20338;-86
2022/05/23 11:42:43;;;;;;;3.75;1.80;;;;;;;28.31;32.47;98475.88;5109607;28;20225;-83
2022/05/23 11:48:48;;;;;;;2.63;1.80;;;;;;;28.78;30.69;98482.59;5109740;28;20219;-83
2022/05/23 11:51:42;;;;;;;3.05;1.80;;;;;;;28.39;29.17;98470.22;5107184;28;20228;-83
2022/05/23 11:54:29;;;;;;;3.03;1.90;;;;;;;28.15;31.06;98480.09;5103955;28;20227;-85
2022/05/23 11:57:29;;;;;;;2.22;2.03;;;;;;;28.20;30.95;98468.88;5109336;28;20241;-86
2022/05/23 12:00:24;;;;;;;7.43;2.15;;;;;;;27.75;30.62;98470.53;5109427;28;20212;-85
2022/05/23 12:03:06;;;;;;;2.13;1.70;;;;;;;27.27;30.31;98479.66;5109578;28;20313;-82
2022/05/23 12:05:35;;;;;;;3.63;1.67;;;;;;;27.28;31.89;98475.97;5109730;28;20205;-82
2022/05/23 12:08:05;;;;;;;4.03;1.85;;;;;;;27.60;30.81;98472.88;5109260;28;20764;-85
2022/05/23 12:10:58;;;;;;;3.42;1.80;;;;;;;27.91;32.61;98478.69;5109953;28;20198;-85
2022/05/23 12:13:40;;;;;;;2.72;1.80;;;;;;;28.25;30.71;98476.06;5109366;28;20640;-86
2022/05/23 12:16:40;;;;;;;3.67;2.40;;;;;;;28.60;31.83;98471.31;5109631;28;20292;-82
2022/05/23 12:19:14;;;;;;;3.22;1.90;;;;;;;28.50;32.43;98475.63;5107542;28;20201;-81
2022/05/23 12:21:44;;;;;;;2.53;1.90;;;;;;;28.55;33.28;98473.88;5109118;28;20216;-85
2022/05/23 12:24:25;;;;;;;5.53;2.20;;;;;;;28.58;31.43;98483.91;5109547;28;20212;-81
2022/05/23 12:26:57;;;;;;;4.53;1.98;;;;;;;28.64;31.25;98471.63;5109271;28;20471;-81
2022/05/23 12:29:30;;;;;;;4.65;2.05;;;;;;;28.54;30.96;98472.28;5111013;28;20205;-82
2022/05/23 12:32:25;;;;;;;3.97;2.10;;;;;;;28.43;31.01;98470.56;5113113;28;20221;-86
2022/05/23 12:34:56;;;;;;;4.15;1.90;;;;;;;28.28;31.39;98467.69;5105907;28;20651;-85
2022/05/23 12:37:30;;;;;;;4.63;2.13;;;;;;;28.24;31.24;98469.19;5112833;28;20304;-80
2022/05/23 12:40:26;;;;;;;2.42;1.70;;;;;;;28.03;31.23;98473.34;5112804;28;20247;-81
2022/05/23 12:43:10;;;;;;;3.58;2.10;;;;;;;27.88;30.72;98479.16;5077461;28;20228;-83
2022/05/23 12:46:04;;;;;;;5.80;2.00;;;;;;;27.72;32.84;98473.63;5113059;28;20693;-84
2022/05/23 12:48:59;;;;;;;5.22;2.10;;;;;;;27.90;32.49;98469.22;5113085;28;20639;-81
2022/05/23 12:51:38;;;;;;;2.20;1.95;;;;;;;27.76;31.89;98472.13;5112648;28;20221;-81